Hastings, NE

4:14 AM CDT on September 04, 2015 (GMT -0500)
Hastings | | Change Station
CLOSE
Current Station
Personal Weather Station
Location: Hastings, NE
Elevation: 1936 ft
Nearby Weather Stations

Elev 1936 ft 40.59 °N, 98.41 °W | Updated 30 minutes ago

Scattered Clouds
Scattered Clouds
74.6 °F
Feels Like 76 °F
N
9.0
Wind Variable Wind from SSE
Gusts 19.0 mph

Today
High -- | Low -- °F
--% Chance of Precip.
Yesterday
High -- | Low -- °F
Precip. -- in
7:03 AM 8:01 PM
Waning Gibbous, 61% visible
Pressure 29.75 in
Visibility 10.0 miles
Clouds Scattered Clouds 12000 ft
Heat Index 76 °F
Dew Point 64 °F
Humidity 72%
Rainfall 0.03 in
Snow Depth Not available.
UV 0 out of 12
Pollen 11.60 out of 12
Air Quality Not available.
Flu Activity Not available.
METAR KHSI 040853Z AUTO 15014G20KT 10SM VCTS SCT120 26/17 A2982 RMK AO2 LTG DSNT N-SE TSB02E17 SLP074 T02560167 55000
Pressure 29.75 in
Visibility 10.0 miles
Clouds Scattered Clouds 12000 ft
Heat Index 76 °F
Dew Point 64 °F
Humidity 72%
Rainfall 0.03 in
Snow Depth Not available.
UV 0 out of 12
Pollen 11.60 out of 12
Air Quality Not available.
Flu Activity Not available.
METAR KHSI 040853Z AUTO 15014G20KT 10SM VCTS SCT120 26/17 A2982 RMK AO2 LTG DSNT N-SE TSB02E17 SLP074 T02560167 55000

10-Day Weather Forecast

×

Almanac

Astronomy

Sep. 04, 2015 Rise Set
Actual Time
Civil Twilight
Nautical Twilight
Astronomical Twilight
Moon
Length of Visible Light
Length of Day
Tomorrow will be .
, % of the Moon is Illuminated

Today's Extremes

State Highs State Lows

Community

WunderPhotos

Upload Photos

1,852,142 photos uploaded!

WunderBlogs® & News

Nearby

Air Quality

  Air Quality AQ Index Pollutant
Not available.

Snow Depth

Station Depth Elevation

Earthquake Activity

City Distance Mag. Time & Date
Minimum magnitude displayed is 2.5.

Coastal Water Temperatures

Place Temperature

Stations

Nearby Weather Stations

Station Location Temp. Windchill Dew Point Humidity Wind Precip. Elev Updated Type